Main page
METAR-TAF:

METAR-TAF

Airports :

Pamplona Airport

Pamplona, Spain

latitude: 42-46N, longitude: 001-38W, elevation: 459 m

Current weather observation

The report was made 16 minutes ago, at 23:00 UTC
Calm wind
Temperature 9°C
Humidity 87%
Pressure 1025 hPa
Visibility 10 km or more
Few clouds at a height of 3000 ft

METAR: LEPP 282300Z 00000KT 9999 FEW030 09/07 Q1025

Time: 00:16 (23:16 UTC)

Forecast

The report was made 3 hours and 16 minutes ago, at 20:00 UTC
Forecast valid from 28 at 21 UTC to 29 at 21 UTC
Wind 5 kt from variable directions
Visibility 10 km or more
Scattered clouds at a height of 3500 ft

TAF: LEPP 282000Z 2821/2921 VRB05KT 9999 SCT035 TX20/2915Z TN06/2907Z

Weather observations and forecasts of more than 4000 airports (METAR and TAF reports).

The available stations are represented by yellow and red dots on the map.

Hover mouse over dot to see the name of the station.

Then click to see weather observations and forecasts.

To change the map : click on the green buttons with a black cross to zoom in, on the green button with a dash to zoom out, or on the green arrows for adjacent maps.


METAR-TAF: